createdAt,value
2018-12-02T00:01:00.265Z,86.02
2018-12-02T00:03:30.317Z,85.38
2018-12-02T00:06:00.112Z,85.17
2018-12-02T00:08:30.357Z,85.41
2018-12-02T00:11:00.162Z,85.95
2018-12-02T00:13:30.129Z,86.06
2018-12-02T00:16:00.213Z,85.63
2018-12-02T00:18:30.357Z,86.26
2018-12-02T00:21:01.584Z,86.03
2018-12-02T00:23:31.314Z,86.48
2018-12-02T00:26:01.204Z,86.78
2018-12-02T00:28:42.442Z,86.34
2018-12-02T00:31:12.298Z,86.83
2018-12-02T00:33:42.244Z,86.22
2018-12-02T00:36:12.331Z,86.43
2018-12-02T00:38:42.361Z,86.27
2018-12-02T00:41:12.750Z,86.45
2018-12-02T00:43:42.510Z,86.74
2018-12-02T00:46:12.678Z,86.44
2018-12-02T00:48:42.439Z,86.87
2018-12-02T00:51:12.215Z,86.11
2018-12-02T00:53:41.987Z,86.34
2018-12-02T00:56:10.217Z,86.21
2018-12-02T00:58:40.485Z,86.19
2018-12-02T01:01:10.226Z,86.03
2018-12-02T01:03:40.124Z,86.25
2018-12-02T01:06:10.221Z,85.78
2018-12-02T01:08:40.024Z,86.03
2018-12-02T01:11:12.167Z,86.04
2018-12-02T01:13:42.244Z,86.74
2018-12-02T01:16:13.528Z,86.82
2018-12-02T01:18:43.246Z,86.51
2018-12-02T01:21:13.040Z,86.28
2018-12-02T01:23:43.084Z,86.53
2018-12-02T01:26:13.156Z,86.54
2018-12-02T01:28:43.326Z,86.41
2018-12-02T01:31:13.432Z,87.09
2018-12-02T01:33:43.184Z,86.98
2018-12-02T01:36:13.143Z,87.31
2018-12-02T01:38:43.055Z,88.04
2018-12-02T01:41:13.355Z,87.11
2018-12-02T01:43:43.383Z,87.64
2018-12-02T01:46:13.192Z,87.39
2018-12-02T01:48:43.341Z,87.55
2018-12-02T01:51:13.191Z,88.24
2018-12-02T01:53:43.359Z,87.91
2018-12-02T01:56:13.278Z,87.48
2018-12-02T01:58:43.151Z,88.04
2018-12-02T02:01:17.382Z,88.51
2018-12-02T02:03:47.122Z,88.37
2018-12-02T02:06:17.183Z,88.39
2018-12-02T02:08:47.119Z,88.37
2018-12-02T02:11:17.160Z,88.26
2018-12-02T02:13:47.545Z,87.85
2018-12-02T02:16:17.407Z,88.39
2018-12-02T02:18:47.525Z,88.04
2018-12-02T02:21:17.444Z,88.16
2018-12-02T02:23:49.769Z,87.37
2018-12-02T02:26:18.480Z,87.37
2018-12-02T02:28:48.636Z,87.74
2018-12-02T02:31:18.475Z,87.60
2018-12-02T02:33:48.829Z,87.65
2018-12-02T02:36:21.392Z,87.23
2018-12-02T02:38:51.386Z,86.87
2018-12-02T02:41:21.601Z,86.78
2018-12-02T02:43:51.303Z,87.10
2018-12-02T02:46:21.083Z,86.91
2018-12-02T02:48:51.180Z,87.14
2018-12-02T02:51:21.175Z,86.85
2018-12-02T02:53:51.107Z,87.14
2018-12-02T02:56:21.290Z,87.61
2018-12-02T02:58:51.273Z,87.22
2018-12-02T03:01:21.089Z,86.66
2018-12-02T03:03:51.332Z,86.79
2018-12-02T03:06:21.128Z,87.23
2018-12-02T03:08:51.230Z,86.91
2018-12-02T03:11:21.323Z,86.61
2018-12-02T03:13:51.547Z,86.69
2018-12-02T03:16:21.280Z,86.79
2018-12-02T03:18:53.467Z,86.72
2018-12-02T03:21:23.188Z,86.23
2018-12-02T03:23:53.305Z,86.45
2018-12-02T03:26:23.392Z,86.69
2018-12-02T03:28:53.452Z,86.44
2018-12-02T03:31:23.792Z,85.95
2018-12-02T03:33:53.918Z,85.73
2018-12-02T03:39:09.450Z,86.20
2018-12-02T03:41:39.388Z,86.07
2018-12-02T03:44:09.574Z,86.22
2018-12-02T03:46:39.476Z,86.63
2018-12-02T03:49:09.562Z,86.06
2018-12-02T03:51:39.556Z,85.81
2018-12-02T03:54:09.374Z,86.09
2018-12-02T03:56:39.801Z,85.42
2018-12-02T03:59:09.640Z,85.90
2018-12-02T04:01:39.492Z,85.55
2018-12-02T04:04:09.359Z,85.30
2018-12-02T04:06:39.479Z,85.36
2018-12-02T04:09:10.639Z,85.27
2018-12-02T04:11:40.463Z,85.64
2018-12-02T04:14:10.604Z,85.82
2018-12-02T04:16:40.423Z,85.72
2018-12-02T04:19:10.232Z,85.95
2018-12-02T04:21:40.389Z,85.60
2018-12-02T04:24:10.348Z,85.05
2018-12-02T04:26:40.133Z,85.17
2018-12-02T04:29:10.907Z,84.73
2018-12-02T04:31:40.939Z,84.61
2018-12-02T04:34:11.238Z,84.62
2018-12-02T04:36:49.451Z,84.83
2018-12-02T04:39:19.306Z,84.69
2018-12-02T04:41:49.460Z,84.87
2018-12-02T04:44:19.441Z,84.89
2018-12-02T04:46:49.303Z,85.00
2018-12-02T04:49:19.367Z,84.69
2018-12-02T04:51:49.265Z,84.50
2018-12-02T04:54:19.154Z,83.96
2018-12-02T04:56:49.404Z,84.55
2018-12-02T04:59:19.379Z,84.59
2018-12-02T05:01:49.543Z,84.41
2018-12-02T05:04:19.563Z,84.52
2018-12-02T05:06:49.354Z,83.94
2018-12-02T05:09:19.284Z,83.64
2018-12-02T05:11:49.160Z,84.03
2018-12-02T05:14:19.297Z,83.41
2018-12-02T05:16:49.416Z,83.66
2018-12-02T05:19:19.383Z,84.03
2018-12-02T05:21:49.237Z,84.03
2018-12-02T05:24:19.276Z,84.25
2018-12-02T05:26:49.311Z,84.03
2018-12-02T05:29:19.123Z,83.91
2018-12-02T05:31:49.262Z,84.21
2018-12-02T05:34:19.130Z,84.00
2018-12-02T05:36:49.217Z,84.00
2018-12-02T05:39:19.688Z,83.99
2018-12-02T05:41:54.350Z,84.19
2018-12-02T05:44:24.362Z,83.97
2018-12-02T05:46:54.224Z,84.28
2018-12-02T05:49:24.422Z,84.67
2018-12-02T05:51:54.592Z,85.10
2018-12-02T05:54:24.398Z,84.52
2018-12-02T05:56:54.360Z,84.05
2018-12-02T05:59:24.179Z,84.58
2018-12-02T06:01:54.216Z,84.17
2018-12-02T06:04:24.163Z,83.98
2018-12-02T06:06:54.119Z,84.29
2018-12-02T06:09:24.359Z,83.90
2018-12-02T06:11:54.428Z,83.69
2018-12-02T06:14:24.788Z,83.93
2018-12-02T06:16:54.864Z,83.68
2018-12-02T06:19:24.643Z,83.86
2018-12-02T06:21:54.595Z,83.15
2018-12-02T06:24:24.475Z,83.52
2018-12-02T06:26:54.292Z,83.54
2018-12-02T06:29:24.420Z,84.19
2018-12-02T06:31:54.224Z,83.87
2018-12-02T06:34:24.332Z,84.29
2018-12-02T06:36:54.188Z,84.38
2018-12-02T06:39:24.396Z,83.85
2018-12-02T06:41:54.496Z,84.11
2018-12-02T06:44:24.579Z,83.68
2018-12-02T06:46:55.529Z,83.71
2018-12-02T06:49:25.345Z,83.81
2018-12-02T06:51:55.222Z,83.73
2018-12-02T06:54:26.987Z,84.13
2018-12-02T06:56:57.799Z,83.73
2018-12-02T07:00:42.821Z,84.24
2018-12-02T07:03:25.925Z,84.07
2018-12-02T07:05:56.358Z,83.81
2018-12-02T07:08:26.317Z,84.06
2018-12-02T07:10:56.509Z,84.04
2018-12-02T07:13:27.455Z,83.73
2018-12-02T07:15:57.844Z,84.09
2018-12-02T07:18:30.413Z,84.09
2018-12-02T07:21:05.653Z,84.28
2018-12-02T07:23:37.209Z,84.31
2018-12-02T07:26:07.971Z,83.47
2018-12-02T07:28:38.045Z,83.70
2018-12-02T07:31:08.198Z,83.83
2018-12-02T07:33:38.341Z,83.23
2018-12-02T07:36:09.662Z,83.58
2018-12-02T07:40:18.741Z,83.35
2018-12-02T07:42:48.747Z,82.72
2018-12-02T07:45:18.641Z,82.56
2018-12-02T07:47:48.732Z,82.54
2018-12-02T07:50:18.743Z,82.53
2018-12-02T07:52:48.572Z,82.00
2018-12-02T07:55:18.491Z,82.31
2018-12-02T07:57:48.823Z,82.10
2018-12-02T08:00:19.044Z,82.00
2018-12-02T08:02:49.204Z,81.25
2018-12-02T08:05:20.267Z,81.14
2018-12-02T08:07:51.763Z,81.17
2018-12-02T08:10:21.760Z,81.15
2018-12-02T08:12:51.624Z,81.17
2018-12-02T08:15:21.721Z,81.31
2018-12-02T08:17:51.871Z,81.21
2018-12-02T08:20:22.408Z,81.45
2018-12-02T08:22:52.404Z,80.95
2018-12-02T08:25:22.223Z,80.64
2018-12-02T08:27:52.360Z,81.51
2018-12-02T08:30:25.320Z,80.98
2018-12-02T08:32:56.218Z,80.93
2018-12-02T08:35:27.780Z,80.71
2018-12-02T08:37:59.076Z,80.75
2018-12-02T08:40:29.372Z,80.73
2018-12-02T08:42:59.308Z,80.53
2018-12-02T08:45:29.165Z,80.42
2018-12-02T08:47:59.471Z,81.06
2018-12-02T08:50:29.521Z,80.65
2018-12-02T08:52:59.570Z,80.34
2018-12-02T08:55:29.595Z,80.33
2018-12-02T08:57:59.851Z,80.66
2018-12-02T09:00:30.082Z,80.82
2018-12-02T09:03:01.604Z,80.63
2018-12-02T09:05:31.548Z,80.54
2018-12-02T09:08:02.187Z,79.96
2018-12-02T09:10:34.520Z,79.68
2018-12-02T09:13:06.677Z,79.25
2018-12-02T09:15:36.774Z,79.41
2018-12-02T09:18:08.783Z,79.21
2018-12-02T09:20:39.036Z,78.95
2018-12-02T09:23:13.077Z,79.04
2018-12-02T09:25:45.660Z,78.20
2018-12-02T09:28:16.115Z,78.01
2018-12-02T09:30:47.011Z,77.41
2018-12-02T09:33:19.249Z,77.73
2018-12-02T09:35:50.366Z,77.63
2018-12-02T09:38:20.502Z,77.40
2018-12-02T09:40:50.616Z,77.08
2018-12-02T09:43:21.017Z,77.89
2018-12-02T09:45:51.702Z,77.29
2018-12-02T09:48:30.774Z,77.29
2018-12-02T09:51:00.553Z,77.78
2018-12-02T09:53:30.536Z,77.82
2018-12-02T09:56:01.340Z,77.07
2018-12-02T09:58:32.095Z,77.20
2018-12-02T10:01:03.288Z,77.18
2018-12-02T10:03:33.724Z,76.81
2018-12-02T10:06:03.586Z,76.97
2018-12-02T10:08:33.468Z,76.46
2018-12-02T10:11:03.622Z,76.41
2018-12-02T10:13:34.453Z,76.93
2018-12-02T10:16:04.425Z,76.60
2018-12-02T10:18:34.373Z,77.11
2018-12-02T10:21:05.414Z,76.67
2018-12-02T10:23:36.192Z,77.15
2018-12-02T10:26:08.676Z,76.50
2018-12-02T10:28:38.675Z,76.89
2018-12-02T10:31:08.455Z,76.83
2018-12-02T10:33:38.577Z,76.49
2018-12-02T10:36:08.544Z,76.52
2018-12-02T10:38:38.579Z,76.74
2018-12-02T10:41:08.633Z,76.36
2018-12-02T10:43:41.340Z,76.81
2018-12-02T10:46:13.349Z,76.80
2018-12-02T10:48:44.556Z,76.47
2018-12-02T10:51:16.447Z,76.50
2018-12-02T10:53:51.598Z,76.55
2018-12-02T10:56:21.755Z,76.88
2018-12-02T10:58:51.966Z,75.96
2018-12-02T11:01:29.871Z,76.40
2018-12-02T11:04:03.008Z,77.02
2018-12-02T11:06:37.522Z,76.57
2018-12-02T11:09:13.360Z,76.42
2018-12-02T11:11:43.583Z,76.57
2018-12-02T11:14:13.719Z,76.54
2018-12-02T11:16:43.626Z,77.63
2018-12-02T11:19:13.657Z,76.97
2018-12-02T11:21:44.281Z,77.26
2018-12-02T11:24:15.016Z,76.59
2018-12-02T11:26:45.258Z,76.90
2018-12-02T11:29:15.567Z,76.99
2018-12-02T11:31:45.351Z,76.09
2018-12-02T11:34:15.554Z,77.13
2018-12-02T11:36:45.607Z,76.58
2018-12-02T11:39:15.449Z,76.34
2018-12-02T11:41:45.676Z,76.54
2018-12-02T11:44:15.789Z,76.22
2018-12-02T11:46:46.634Z,76.58
2018-12-02T11:49:16.897Z,75.58
2018-12-02T11:51:46.801Z,75.13
2018-12-02T11:54:16.783Z,74.99
2018-12-02T11:56:46.903Z,74.78
2018-12-02T11:59:17.072Z,75.28
2018-12-02T12:01:47.843Z,74.77
2018-12-02T12:04:18.088Z,73.28
2018-12-02T12:06:48.885Z,73.72
2018-12-02T12:09:20.138Z,73.78
2018-12-02T12:11:50.787Z,73.01
2018-12-02T12:14:20.732Z,73.03
2018-12-02T12:16:51.679Z,73.17
2018-12-02T12:19:21.633Z,73.59
2018-12-02T12:21:51.615Z,73.55
2018-12-02T12:24:23.342Z,73.62
2018-12-02T12:26:53.483Z,73.35
2018-12-02T12:29:24.660Z,73.68
2018-12-02T12:31:54.610Z,73.70
2018-12-02T12:34:24.745Z,73.31
2018-12-02T12:36:54.636Z,73.94
2018-12-02T12:39:24.480Z,73.78
2018-12-02T12:41:54.479Z,73.57
2018-12-02T12:44:24.808Z,74.14
2018-12-02T12:46:54.623Z,74.01
2018-12-02T12:49:24.522Z,73.86
2018-12-02T12:51:54.608Z,73.77
2018-12-02T12:54:24.321Z,73.82
2018-12-02T12:56:54.351Z,73.67
2018-12-02T12:59:24.637Z,73.64
2018-12-02T13:01:54.521Z,74.34
2018-12-02T13:04:24.421Z,73.45
2018-12-02T13:06:54.359Z,73.48
2018-12-02T13:09:24.634Z,73.61
2018-12-02T13:11:54.480Z,73.27
2018-12-02T13:14:24.491Z,73.44
2018-12-02T13:16:54.640Z,73.17
2018-12-02T13:19:24.409Z,73.13
2018-12-02T13:21:54.288Z,72.97
2018-12-02T13:24:24.329Z,72.74
2018-12-02T13:26:54.398Z,72.35
2018-12-02T13:29:24.382Z,71.70
2018-12-02T13:31:54.583Z,71.58
2018-12-02T13:34:25.543Z,71.37
2018-12-02T13:36:55.393Z,70.96
2018-12-02T13:39:25.143Z,71.08
2018-12-02T13:41:55.575Z,72.07
2018-12-02T13:44:25.598Z,72.64
2018-12-02T13:46:55.516Z,73.73
2018-12-02T13:49:25.574Z,74.17
2018-12-02T13:51:56.017Z,74.95
2018-12-02T13:54:31.343Z,75.81
2018-12-02T13:57:06.451Z,76.50
2018-12-02T13:59:36.989Z,75.87
2018-12-02T14:02:08.647Z,76.52
2018-12-02T14:04:38.504Z,77.17
2018-12-02T14:09:50.295Z,77.96
2018-12-02T14:12:20.381Z,78.17
2018-12-02T14:14:50.363Z,79.28
2018-12-02T14:17:22.871Z,79.43
2018-12-02T14:19:53.086Z,79.98
2018-12-02T14:22:24.920Z,80.09
2018-12-02T14:24:56.558Z,80.53
2018-12-02T14:27:27.271Z,80.77
2018-12-02T14:29:58.395Z,81.64
2018-12-02T14:32:28.927Z,82.12
2018-12-02T14:34:58.908Z,81.90
2018-12-02T14:37:29.223Z,83.72
2018-12-02T14:39:59.211Z,83.03
2018-12-02T14:42:29.243Z,82.62
2018-12-02T14:44:59.617Z,82.85
2018-12-02T14:47:29.384Z,83.12
2018-12-02T14:50:29.935Z,83.00
2018-12-02T14:53:00.991Z,83.25
2018-12-02T14:55:31.642Z,83.35
2018-12-02T14:58:03.027Z,83.91
2018-12-02T15:00:35.592Z,83.30
2018-12-02T15:03:18.363Z,84.05
2018-12-02T15:05:49.068Z,84.48
2018-12-02T15:08:19.599Z,84.11
2018-12-02T15:10:49.798Z,84.20
2018-12-02T15:13:22.281Z,84.89
2018-12-02T15:15:52.472Z,85.20
2018-12-02T15:18:22.407Z,84.36
2018-12-02T15:20:52.478Z,85.08
2018-12-02T15:23:22.643Z,85.59
2018-12-02T15:25:53.527Z,85.50
2018-12-02T15:28:23.620Z,85.91
2018-12-02T15:30:58.639Z,85.84
2018-12-02T15:33:28.569Z,86.11
2018-12-02T15:35:59.142Z,85.92
2018-12-02T15:38:29.615Z,85.57
2018-12-02T15:40:59.408Z,86.04
2018-12-02T15:43:29.693Z,86.26
2018-12-02T15:45:59.705Z,85.77
2018-12-02T15:48:29.813Z,85.86
2018-12-02T15:50:59.928Z,86.02
2018-12-02T15:53:30.172Z,85.99
2018-12-02T15:56:00.225Z,86.88
2018-12-02T15:58:30.411Z,86.23
2018-12-02T16:01:00.592Z,86.66
2018-12-02T16:03:30.391Z,86.67
2018-12-02T16:06:02.815Z,86.84
2018-12-02T16:08:35.428Z,87.51
2018-12-02T16:11:07.935Z,89.13
2018-12-02T16:13:37.919Z,85.74
2018-12-02T16:16:09.007Z,86.65
2018-12-02T16:18:39.017Z,86.88
2018-12-02T16:21:09.137Z,87.19
2018-12-02T16:23:39.188Z,87.93
2018-12-02T16:26:09.048Z,87.51
2018-12-02T16:28:39.136Z,87.83
2018-12-02T16:31:09.196Z,86.95
2018-12-02T16:33:39.303Z,87.97
2018-12-02T16:36:09.024Z,87.88
2018-12-02T16:38:39.176Z,87.24
2018-12-02T16:41:09.204Z,87.80
2018-12-02T16:43:39.128Z,87.18
2018-12-02T16:46:09.662Z,87.28
2018-12-02T16:48:39.505Z,87.64
2018-12-02T16:51:09.385Z,87.11
2018-12-02T16:53:39.519Z,87.15
2018-12-02T16:56:16.124Z,86.18
2018-12-02T16:58:53.687Z,86.51
2018-12-02T17:01:26.001Z,86.44
2018-12-02T17:03:58.169Z,86.87
2018-12-02T17:06:28.187Z,86.55
2018-12-02T17:08:59.271Z,86.86
2018-12-02T17:11:29.410Z,87.06
2018-12-02T17:13:59.134Z,86.43
2018-12-02T17:16:30.459Z,86.98
2018-12-02T17:19:00.815Z,86.80
2018-12-02T17:21:30.553Z,86.57
2018-12-02T17:24:02.207Z,86.72
2018-12-02T17:26:32.215Z,86.86
2018-12-02T17:29:02.204Z,87.57
2018-12-02T17:31:37.138Z,87.62
2018-12-02T17:34:07.655Z,87.97
2018-12-02T17:36:37.582Z,87.36
2018-12-02T17:39:16.375Z,87.34
2018-12-02T17:41:49.032Z,87.37
2018-12-02T17:44:19.432Z,87.82
2018-12-02T17:46:49.680Z,87.61
2018-12-02T17:49:19.991Z,86.69
2018-12-02T17:51:50.751Z,86.34
2018-12-02T17:54:20.804Z,86.77
2018-12-02T17:56:51.091Z,86.78
2018-12-02T17:59:21.463Z,86.76
2018-12-02T18:01:51.675Z,86.88
2018-12-02T18:04:21.589Z,87.10
2018-12-02T18:06:51.661Z,86.96
2018-12-02T18:09:22.553Z,86.79
2018-12-02T18:11:52.980Z,86.44
2018-12-02T18:14:23.639Z,86.14
2018-12-02T18:16:53.675Z,86.62
2018-12-02T18:19:23.784Z,86.16
2018-12-02T18:21:55.019Z,86.52
2018-12-02T18:24:23.772Z,86.63
2018-12-02T18:26:53.685Z,86.56
2018-12-02T18:29:23.620Z,86.78
2018-12-02T18:31:53.876Z,86.75
2018-12-02T18:34:23.788Z,86.22
2018-12-02T18:36:54.531Z,86.68
2018-12-02T18:39:24.418Z,87.43
2018-12-02T18:41:55.897Z,87.15
2018-12-02T18:44:27.280Z,86.57
2018-12-02T18:46:57.545Z,87.36
2018-12-02T18:49:27.423Z,86.58
2018-12-02T18:51:57.999Z,86.85
2018-12-02T18:54:28.609Z,86.56
2018-12-02T18:56:58.593Z,87.07
2018-12-02T18:59:28.987Z,86.50
2018-12-02T19:01:59.462Z,85.34
2018-12-02T19:04:29.384Z,84.80
2018-12-02T19:06:59.382Z,84.50
2018-12-02T19:09:30.670Z,84.30
2018-12-02T19:12:00.588Z,84.18
2018-12-02T19:14:33.127Z,84.19
2018-12-02T19:17:04.032Z,83.79
2018-12-02T19:19:35.304Z,83.54
2018-12-02T19:22:07.509Z,83.33
2018-12-02T19:24:37.786Z,83.44
2018-12-02T19:27:07.793Z,82.75
2018-12-02T19:29:38.162Z,82.99
2018-12-02T19:32:09.186Z,82.86
2018-12-02T19:34:39.485Z,82.89
2018-12-02T19:37:11.428Z,83.01
2018-12-02T19:39:41.488Z,82.88
2018-12-02T19:42:12.960Z,82.62
2018-12-02T19:44:43.121Z,81.96
2018-12-02T19:47:13.710Z,82.05
2018-12-02T19:49:43.971Z,82.81
2018-12-02T19:52:14.833Z,82.18
2018-12-02T19:54:45.105Z,81.80
2018-12-02T19:57:15.818Z,82.11
2018-12-02T19:59:45.875Z,81.94
2018-12-02T20:02:16.635Z,82.52
2018-12-02T20:04:46.751Z,82.64
2018-12-02T20:07:17.050Z,82.79
2018-12-02T20:09:47.730Z,83.47
2018-12-02T20:12:18.506Z,83.70
2018-12-02T20:14:49.360Z,83.65
2018-12-02T20:17:19.504Z,83.80
2018-12-02T20:19:55.093Z,83.96
2018-12-02T20:22:25.357Z,84.27
2018-12-02T20:25:05.548Z,84.29
2018-12-02T20:27:38.519Z,84.26
2018-12-02T20:30:12.080Z,84.54
2018-12-02T20:32:42.310Z,84.52
2018-12-02T20:35:12.995Z,85.02
2018-12-02T20:37:43.361Z,85.42
2018-12-02T20:40:15.845Z,85.54
2018-12-02T20:42:46.384Z,85.58
2018-12-02T20:45:17.697Z,86.57
2018-12-02T20:47:48.744Z,86.23
2018-12-02T20:50:21.188Z,86.66
2018-12-02T20:52:51.659Z,87.04
2018-12-02T20:55:23.967Z,87.54
2018-12-02T20:57:56.232Z,87.19
2018-12-02T21:00:26.511Z,86.97
2018-12-02T21:03:03.212Z,87.72
2018-12-02T21:05:35.464Z,87.87
2018-12-02T21:08:05.704Z,88.07
2018-12-02T21:10:36.844Z,88.62
2018-12-02T21:13:07.498Z,88.77
2018-12-02T21:15:37.960Z,88.57
2018-12-02T21:18:08.249Z,89.18
2018-12-02T21:20:38.558Z,89.80
2018-12-02T21:23:08.592Z,89.53
2018-12-02T21:25:38.581Z,89.05
2018-12-02T21:28:09.962Z,89.57
2018-12-02T21:30:40.777Z,89.82
2018-12-02T21:33:11.034Z,89.24
2018-12-02T21:35:41.364Z,89.61
2018-12-02T21:38:11.478Z,89.61
2018-12-02T21:40:41.540Z,90.09
2018-12-02T21:43:11.509Z,90.46
2018-12-02T21:45:41.635Z,90.57
2018-12-02T21:48:13.538Z,90.51
2018-12-02T21:50:44.424Z,90.28
2018-12-02T21:53:14.283Z,90.21
2018-12-02T21:55:44.221Z,90.47
2018-12-02T21:58:14.506Z,90.70
2018-12-02T22:00:46.034Z,91.16
2018-12-02T22:03:16.459Z,90.74
2018-12-02T22:05:46.448Z,90.66
2018-12-02T22:08:16.728Z,91.46
2018-12-02T22:10:46.691Z,91.44
2018-12-02T22:13:16.752Z,91.98
2018-12-02T22:15:46.725Z,91.85
2018-12-02T22:18:16.744Z,91.73
2018-12-02T22:20:46.545Z,91.67
2018-12-02T22:23:16.445Z,92.06
2018-12-02T22:25:46.384Z,91.80
2018-12-02T22:28:16.176Z,91.84
2018-12-02T22:30:46.278Z,92.60
2018-12-02T22:33:16.477Z,92.44
2018-12-02T22:35:46.643Z,93.04
2018-12-02T22:38:16.491Z,92.26
2018-12-02T22:40:46.553Z,92.65
2018-12-02T22:43:16.419Z,92.85
2018-12-02T22:45:46.434Z,92.64
2018-12-02T22:48:16.562Z,93.23
2018-12-02T22:50:46.393Z,93.40
2018-12-02T22:53:16.484Z,93.24
2018-12-02T22:55:46.567Z,92.77
2018-12-02T22:58:17.521Z,93.27
2018-12-02T23:00:53.089Z,93.52
2018-12-02T23:03:23.193Z,93.62
2018-12-02T23:05:53.810Z,92.91
2018-12-02T23:08:23.815Z,93.45
2018-12-02T23:10:54.113Z,93.18
2018-12-02T23:13:24.493Z,93.04
2018-12-02T23:15:54.586Z,93.07
2018-12-02T23:18:25.636Z,93.20
2018-12-02T23:20:55.458Z,92.77
2018-12-02T23:23:25.271Z,93.12
2018-12-02T23:25:55.603Z,92.42
2018-12-02T23:28:25.443Z,92.63
2018-12-02T23:30:55.593Z,93.03
2018-12-02T23:33:25.643Z,92.74
2018-12-02T23:35:55.424Z,92.50
2018-12-02T23:38:25.241Z,92.04
2018-12-02T23:40:55.419Z,92.26
2018-12-02T23:43:25.308Z,92.23
2018-12-02T23:45:55.458Z,92.03
2018-12-02T23:48:25.511Z,92.29
2018-12-02T23:50:55.667Z,91.97
2018-12-02T23:53:25.524Z,92.07
2018-12-02T23:55:55.464Z,91.96
2018-12-02T23:58:25.472Z,92.21
